VGEG/CGP METAR and TAF weather

Enter ICAO airport designator
Station Type Date Time Source
VGEG METAR 2022/06/28 10:00 UTC NOAA

VGEG 281000Z 22012KT 6000 SCT025 FEW030CB BKN100 32/26 Q1003 NOSIG


Station Type Date Time Source
VGEG Decoded METAR 2022/06/28 10:00 UTC NOAA

Chittagong Patenga , Bangladesh (VGEG) 22-16N 091-49E 6M
Jun 28, 2022 - 06:00 AM EDT / 2022.06.28 1000 UTC
Wind: from the SW (220 degrees) at 14 MPH (12 KT):0
Visibility: 3 mile(s):0
Sky conditions: mostly cloudy
Weather: Cumulonimbus clouds observed
Temperature: 89 F (32 C)
Heat index: 102.9 F (39.4 C):1
Dew Point: 78 F (26 C)
Relative Humidity: 70%
Pressure (altimeter): 29.62 in. Hg (1003 hPa)
ob: VGEG 281000Z 22012KT 6000 SCT025 FEW030CB BKN100 32/26 Q1003 NOSIG
cycle: 10

Station Type Date Time Source
VGEG TAF 2022/06/28 06:30 UTC NOAA

TAF TAF VGEG 280500Z 2806/2912 22010KT 5000 SCT017 BKN120
BECMG 2812/2814 18008KT 5000 SCT016 BKN110
BECMG 2900/2902 00000KT 5000 SCT016 BKN110
BECMG 2905/2907 23012KT 5000 SCT016 BKN120

Example: see airport list